Time;durP1;ratioP1;P1;durP2;ratioP2;P2;SDS_P1;SDS_P2;PMS_P1;PMS_P2;Temp;Humidity;BMP_temperature;BMP_pressure;BME280_temperature;BME280_humidity;BME280_pressure;Samples;Min_cycle;Max_cycle;Signal;HPM_P1;HPM_P2
2021/05/22 00:00:56;;;;;;;2.45;0.90;;;12.20;99.90;;;;;;5084910;28;20462;-72
2021/05/22 00:03:23;;;;;;;2.33;0.70;;;12.20;99.10;;;;;;5090317;28;20076;-72
2021/05/22 00:05:50;;;;;;;2.25;0.98;;;12.20;99.90;;;;;;5074209;28;20717;-72
2021/05/22 00:08:17;;;;;;;0.95;0.70;;;12.30;99.90;;;;;;5082701;28;20073;-72
2021/05/22 00:10:44;;;;;;;2.95;0.88;;;12.30;98.50;;;;;;5074519;28;20571;-73
2021/05/22 00:13:11;;;;;;;0.90;0.77;;;12.30;98.50;;;;;;5077193;28;20531;-72
2021/05/22 00:15:38;;;;;;;2.55;0.80;;;12.10;99.20;;;;;;5078763;28;20514;-72
2021/05/22 00:18:05;;;;;;;0.90;0.70;;;12.10;99.20;;;;;;5078784;28;20084;-72
2021/05/22 00:20:32;;;;;;;3.05;0.75;;;12.10;98.80;;;;;;5083197;28;20476;-72
2021/05/22 00:22:59;;;;;;;2.10;0.80;;;12.10;99.00;;;;;;5077527;28;20541;-72
2021/05/22 00:25:26;;;;;;;3.13;1.00;;;11.90;99.90;;;;;;5087915;28;20471;-72
2021/05/22 00:27:53;;;;;;;3.00;0.90;;;11.10;99.90;;;;;;5082324;28;20050;-72
2021/05/22 00:30:20;;;;;;;1.98;1.00;;;11.00;99.90;;;;;;5082398;28;20529;-72
2021/05/22 00:32:47;;;;;;;2.83;1.20;;;11.00;99.90;;;;;;5079515;28;20040;-72
2021/05/22 00:35:14;;;;;;;1.95;0.82;;;10.90;99.90;;;;;;5078944;28;20048;-73
2021/05/22 00:37:41;;;;;;;1.58;0.77;;;11.10;99.90;;;;;;5071215;28;20072;-73
2021/05/22 00:40:09;;;;;;;4.80;0.93;;;11.00;99.90;;;;;;5079189;28;20056;-72
2021/05/22 00:42:37;;;;;;;4.22;1.48;;;10.60;99.90;;;;;;5076110;28;20134;-72
2021/05/22 00:45:18;;;;;;;5.07;1.80;;;10.40;99.90;;;;;;5074424;28;20052;-72
2021/05/22 00:47:51;;;;;;;2.85;1.63;;;10.50;99.90;;;;;;5087153;28;20463;-72
2021/05/22 00:50:24;;;;;;;6.20;1.02;;;10.60;99.90;;;;;;5079388;28;20069;-72
2021/05/22 00:52:51;;;;;;;1.63;0.80;;;10.40;99.90;;;;;;5073391;28;20060;-72
2021/05/22 00:55:19;;;;;;;3.60;1.35;;;10.30;99.90;;;;;;5072805;28;20049;-72
2021/05/22 00:57:46;;;;;;;3.50;0.95;;;10.20;99.90;;;;;;5079351;28;20052;-72
2021/05/22 01:00:16;;;;;;;2.97;0.70;;;10.10;99.90;;;;;;5081464;28;20067;-72
2021/05/22 01:02:44;;;;;;;6.43;0.93;;;10.10;99.90;;;;;;5084148;28;20079;-72
2021/05/22 01:05:13;;;;;;;1.95;1.10;;;10.20;99.90;;;;;;5087231;28;20098;-72
2021/05/22 01:07:43;;;;;;;2.08;0.85;;;10.30;99.90;;;;;;5076087;28;20051;-72
2021/05/22 01:10:11;;;;;;;7.30;1.00;;;10.20;99.90;;;;;;5081691;28;20111;-72
2021/05/22 01:12:42;;;;;;;4.57;1.08;;;10.30;99.90;;;;;;5080194;28;20044;-72
2021/05/22 01:15:19;;;;;;;4.28;1.60;;;10.40;99.90;;;;;;5073556;28;20125;-73
2021/05/22 01:17:49;;;;;;;6.28;1.70;;;10.10;99.90;;;;;;5082169;28;20036;-72
2021/05/22 01:20:34;;;;;;;4.75;1.40;;;10.10;99.90;;;;;;5078340;28;20150;-71
2021/05/22 01:23:20;;;;;;;1.63;0.93;;;10.10;99.90;;;;;;5073120;28;20098;-74
2021/05/22 01:25:51;;;;;;;3.38;0.93;;;10.30;99.90;;;;;;5077143;28;20052;-73
2021/05/22 01:28:17;;;;;;;;;;;10.40;99.90;;;;;;5081798;28;20075;-73
2021/05/22 01:30:45;;;;;;;1.48;0.60;;;10.30;99.90;;;;;;5075491;28;19982;-74
2021/05/22 01:33:12;;;;;;;3.13;0.88;;;10.30;99.90;;;;;;5086837;28;20462;-73
2021/05/22 01:35:41;;;;;;;1.88;0.70;;;10.10;99.90;;;;;;5080344;28;20490;-71
2021/05/22 01:38:08;;;;;;;7.82;1.05;;;10.20;99.90;;;;;;5083146;28;20048;-71
2021/05/22 01:40:36;;;;;;;4.30;0.98;;;10.40;99.90;;;;;;5077624;28;20053;-70
2021/05/22 01:43:05;;;;;;;2.85;1.17;;;10.20;99.90;;;;;;5072581;28;20059;-71
2021/05/22 01:45:34;;;;;;;3.13;1.00;;;10.20;99.90;;;;;;5080793;28;20099;-72
2021/05/22 01:48:03;;;;;;;4.28;0.98;;;10.30;99.90;;;;;;5081837;28;20098;-71
2021/05/22 01:50:32;;;;;;;2.42;0.90;;;10.30;99.90;;;;;;5078973;28;20047;-71
2021/05/22 01:53:03;;;;;;;3.13;1.63;;;10.30;99.90;;;;;;5079754;28;20048;-70
2021/05/22 01:55:31;;;;;;;4.75;1.17;;;10.10;99.90;;;;;;5087986;28;20363;-70
2021/05/22 01:57:58;;;;;;;6.65;0.85;;;10.10;99.90;;;;;;5079589;28;20123;-71
2021/05/22 02:00:26;;;;;;;9.82;2.58;;;10.10;99.90;;;;;;5085810;28;20537;-70
2021/05/22 02:03:16;;;;;;;3.25;1.20;;;10.20;99.90;;;;;;5081561;28;20787;-70
2021/05/22 02:05:47;;;;;;;3.70;1.15;;;10.30;99.90;;;;;;5077421;28;20137;-71
2021/05/22 02:08:16;;;;;;;2.10;1.05;;;10.40;99.90;;;;;;5080609;28;20076;-70
2021/05/22 02:10:47;;;;;;;5.05;1.00;;;10.30;99.90;;;;;;5082580;28;20048;-70
2021/05/22 02:13:14;;;;;;;5.90;0.98;;;10.30;99.90;;;;;;5076459;28;20127;-70
2021/05/22 02:15:51;;;;;;;3.42;0.88;;;10.30;99.90;;;;;;5079753;28;20040;-71
2021/05/22 02:18:19;;;;;;;4.40;1.00;;;10.40;99.90;;;;;;5084885;28;20129;-72
2021/05/22 02:20:47;;;;;;;2.45;0.70;;;10.30;99.90;;;;;;5085747;28;20109;-71
2021/05/22 02:23:17;;;;;;;4.97;0.80;;;10.40;99.90;;;;;;5087624;28;20048;-71
2021/05/22 02:25:44;;;;;;;2.72;0.98;;;10.30;99.90;;;;;;5091989;28;20076;-71
2021/05/22 02:28:11;;;;;;;2.70;0.77;;;10.30;99.90;;;;;;5076379;28;20048;-71
2021/05/22 02:30:42;;;;;;;4.68;0.90;;;10.30;99.90;;;;;;5085908;28;20432;-70
2021/05/22 02:33:14;;;;;;;3.65;1.23;;;10.20;99.90;;;;;;5075159;28;20125;-70
2021/05/22 02:35:45;;;;;;;4.43;0.88;;;10.40;99.90;;;;;;5082705;28;20094;-71
2021/05/22 02:38:18;;;;;;;2.53;0.70;;;10.30;99.90;;;;;;5080753;28;20086;-70
2021/05/22 02:40:47;;;;;;;2.80;0.60;;;10.30;99.90;;;;;;5077009;28;20069;-70
2021/05/22 02:43:14;;;;;;;3.33;0.90;;;10.30;99.90;;;;;;5085487;28;20048;-70
2021/05/22 02:45:44;;;;;;;2.17;0.80;;;10.40;99.90;;;;;;5082257;28;20083;-70
2021/05/22 02:48:16;;;;;;;;;;;10.50;99.90;;;;;;5090752;28;20067;-70
2021/05/22 02:50:46;;;;;;;4.00;0.90;;;10.50;99.90;;;;;;5077526;28;19920;-71
2021/05/22 02:53:16;;;;;;;;;;;10.60;99.90;;;;;;5087720;28;20067;-70
2021/05/22 02:55:43;;;;;;;1.98;0.90;;;10.50;99.90;;;;;;5080582;28;19974;-71
2021/05/22 02:58:12;;;;;;;3.42;1.00;;;10.30;99.90;;;;;;5085959;28;20033;-70
2021/05/22 03:00:39;;;;;;;6.25;1.00;;;10.50;99.90;;;;;;5082380;28;20071;-72
2021/05/22 03:03:06;;;;;;;2.55;1.05;;;10.50;99.90;;;;;;5083006;28;20086;-71
2021/05/22 03:05:33;;;;;;;5.03;1.10;;;10.50;99.90;;;;;;5074723;28;20577;-70
2021/05/22 03:08:01;;;;;;;4.82;1.08;;;10.40;99.90;;;;;;5086839;28;20427;-70
2021/05/22 03:10:30;;;;;;;1.55;0.93;;;10.60;99.90;;;;;;5075647;28;20447;-69
2021/05/22 03:12:57;;;;;;;1.83;0.77;;;10.30;99.90;;;;;;5085806;28;20090;-69
2021/05/22 03:15:23;;;;;;;2.90;1.13;;;10.40;99.90;;;;;;5083058;28;20079;-70
2021/05/22 03:17:50;;;;;;;3.47;1.25;;;10.50;99.90;;;;;;5077457;28;20105;-69
2021/05/22 03:20:17;;;;;;;2.08;0.90;;;10.50;99.90;;;;;;5075525;28;20048;-70
2021/05/22 03:22:44;;;;;;;2.40;1.02;;;10.70;99.90;;;;;;5086377;28;20040;-70
2021/05/22 03:25:11;;;;;;;6.80;1.30;;;10.50;99.90;;;;;;5084427;28;20075;-69
2021/05/22 03:27:39;;;;;;;2.10;1.05;;;10.40;99.90;;;;;;5080830;28;20040;-70
2021/05/22 03:30:08;;;;;;;3.75;1.10;;;10.30;99.90;;;;;;5081791;28;20121;-70
2021/05/22 03:32:35;;;;;;;1.42;0.75;;;10.30;99.90;;;;;;5074824;28;20105;-70
2021/05/22 03:35:03;;;;;;;2.22;1.08;;;10.30;99.90;;;;;;5082756;28;20041;-69
2021/05/22 03:37:30;;;;;;;1.95;0.85;;;10.30;99.90;;;;;;5080871;28;20052;-70
2021/05/22 03:39:57;;;;;;;1.55;0.70;;;10.20;99.90;;;;;;5079821;28;20080;-69
2021/05/22 03:42:24;;;;;;;6.68;0.95;;;10.20;99.90;;;;;;5084351;28;20072;-69
2021/05/22 03:44:51;;;;;;;6.20;0.85;;;10.30;99.90;;;;;;5086195;28;20132;-70
2021/05/22 03:47:18;;;;;;;4.38;1.00;;;10.30;99.90;;;;;;5073810;28;20086;-69
2021/05/22 03:49:45;;;;;;;3.58;1.08;;;10.20;99.90;;;;;;5081843;28;20068;-69
2021/05/22 03:52:12;;;;;;;3.75;1.13;;;10.20;99.90;;;;;;5084000;28;20140;-69
2021/05/22 03:54:38;;;;;;;1.45;0.80;;;10.30;99.90;;;;;;5074263;28;20085;-69
2021/05/22 03:57:05;;;;;;;3.97;0.80;;;10.40;99.90;;;;;;5084423;28;20131;-69
2021/05/22 03:59:32;;;;;;;3.60;1.02;;;10.40;99.90;;;;;;5085456;28;20047;-71
2021/05/22 04:01:59;;;;;;;2.83;0.90;;;10.30;99.90;;;;;;5085410;28;20079;-72
2021/05/22 04:04:26;;;;;;;3.47;0.88;;;10.40;99.90;;;;;;5078005;28;20123;-72
2021/05/22 04:06:53;;;;;;;1.98;1.05;;;10.50;99.90;;;;;;5078397;28;20041;-72
2021/05/22 04:09:19;;;;;;;3.38;0.93;;;10.50;99.90;;;;;;5082471;28;20044;-72
2021/05/22 04:11:46;;;;;;;1.10;0.70;;;10.60;99.90;;;;;;5083771;28;20127;-72
2021/05/22 04:14:13;;;;;;;3.47;0.95;;;10.50;99.90;;;;;;5085433;28;20075;-72
2021/05/22 04:16:40;;;;;;;2.97;1.20;;;10.40;99.90;;;;;;5077348;28;20052;-72
2021/05/22 04:19:07;;;;;;;3.72;0.95;;;10.50;99.90;;;;;;5078166;28;20098;-72
2021/05/22 04:21:33;;;;;;;4.40;0.70;;;10.70;99.90;;;;;;5076205;28;20113;-72
2021/05/22 04:24:00;;;;;;;6.32;1.00;;;10.70;99.90;;;;;;5074963;28;20119;-72
2021/05/22 04:26:27;;;;;;;3.05;0.80;;;10.60;99.90;;;;;;5084487;28;20052;-72
2021/05/22 04:28:54;;;;;;;2.63;0.90;;;10.60;99.90;;;;;;5087931;28;20904;-72
2021/05/22 04:31:21;;;;;;;6.60;1.15;;;10.60;99.90;;;;;;5094455;28;20052;-72
2021/05/22 04:33:47;;;;;;;5.50;1.00;;;10.60;99.90;;;;;;5077253;28;20441;-72
2021/05/22 04:36:15;;;;;;;2.97;1.08;;;10.70;99.90;;;;;;5084279;28;20073;-72
2021/05/22 04:38:42;;;;;;;4.57;1.20;;;10.70;99.90;;;;;;5082358;28;20545;-72
2021/05/22 04:41:09;;;;;;;5.22;1.00;;;10.70;99.90;;;;;;5080014;28;20094;-72
2021/05/22 04:43:36;;;;;;;6.13;1.30;;;10.80;99.90;;;;;;5084362;28;20041;-72
2021/05/22 04:46:02;;;;;;;4.72;0.80;;;10.70;99.90;;;;;;5079951;28;20123;-72
2021/05/22 04:48:29;;;;;;;2.70;1.08;;;10.70;99.90;;;;;;5081194;28;20040;-73
2021/05/22 04:50:57;;;;;;;3.47;0.80;;;10.80;99.90;;;;;;5086297;28;20082;-72
2021/05/22 04:53:24;;;;;;;6.53;1.17;;;10.90;99.90;;;;;;5078313;28;20071;-72
2021/05/22 04:55:51;;;;;;;5.07;1.02;;;11.00;99.90;;;;;;5080848;28;21917;-72
2021/05/22 04:58:18;;;;;;;4.30;1.00;;;11.00;99.90;;;;;;5084495;28;20060;-72
2021/05/22 05:00:45;;;;;;;3.22;1.20;;;11.10;99.90;;;;;;5099246;28;20479;-72
2021/05/22 05:03:12;;;;;;;6.70;0.93;;;11.70;99.90;;;;;;5078374;28;20082;-72
2021/05/22 05:05:38;;;;;;;3.67;1.00;;;12.60;99.90;;;;;;5086035;28;20083;-72
2021/05/22 05:08:05;;;;;;;2.47;1.02;;;12.10;99.90;;;;;;5079624;28;20099;-72
2021/05/22 05:10:32;;;;;;;3.53;1.08;;;11.80;99.90;;;;;;5073417;28;20127;-73
2021/05/22 05:12:59;;;;;;;2.88;0.90;;;12.20;99.90;;;;;;5088920;28;20044;-73
2021/05/22 05:15:26;;;;;;;4.63;0.98;;;12.30;99.90;;;;;;5082391;28;20089;-73
2021/05/22 05:17:53;;;;;;;4.32;1.33;;;14.00;98.00;;;;;;5086567;28;20052;-73
2021/05/22 05:20:20;;;;;;;4.68;1.20;;;13.70;93.60;;;;;;5076097;28;20053;-72
2021/05/22 05:22:50;;;;;;;4.32;1.20;;;13.00;94.80;;;;;;5077025;28;20072;-72
2021/05/22 05:25:17;;;;;;;5.47;1.33;;;12.20;97.70;;;;;;5078743;28;20048;-72
2021/05/22 05:27:44;;;;;;;5.55;1.13;;;11.90;98.90;;;;;;5085991;28;20549;-73
2021/05/22 05:30:11;;;;;;;6.45;1.60;;;11.80;99.80;;;;;;5082151;28;20429;-72
2021/05/22 05:32:38;;;;;;;5.85;1.25;;;11.90;98.70;;;;;;5076341;28;20087;-72
2021/05/22 05:35:05;;;;;;;6.93;1.00;;;12.00;98.70;;;;;;5091470;28;20052;-72
2021/05/22 05:37:32;;;;;;;5.03;0.90;;;12.10;97.20;;;;;;5091347;28;20488;-73
2021/05/22 05:39:59;;;;;;;9.80;1.45;;;12.30;96.90;;;;;;5076660;28;20044;-72
2021/05/22 05:42:26;;;;;;;3.08;0.77;;;12.60;96.70;;;;;;5089236;28;20056;-72
2021/05/22 05:44:53;;;;;;;8.07;1.17;;;12.00;95.60;;;;;;5089266;28;20081;-72
2021/05/22 05:47:20;;;;;;;4.93;1.38;;;12.00;96.80;;;;;;5082751;28;20079;-72
2021/05/22 05:49:47;;;;;;;4.10;0.95;;;12.30;96.50;;;;;;5084316;28;20109;-72
2021/05/22 05:52:14;;;;;;;5.15;1.20;;;12.50;95.20;;;;;;5081565;28;20117;-72
2021/05/22 05:54:41;;;;;;;5.88;0.98;;;12.30;95.00;;;;;;5074342;28;20037;-72
2021/05/22 05:57:08;;;;;;;3.65;0.93;;;12.10;95.00;;;;;;5087705;28;20044;-72
2021/05/22 05:59:35;;;;;;;12.10;1.40;;;12.10;95.90;;;;;;5091147;28;20084;-72
2021/05/22 06:02:02;;;;;;;7.10;1.10;;;12.20;95.50;;;;;;5072318;28;20417;-72
2021/05/22 06:04:29;;;;;;;6.30;1.10;;;12.10;96.00;;;;;;5084241;28;20051;-72
2021/05/22 06:06:55;;;;;;;5.45;0.93;;;12.20;96.10;;;;;;5078471;28;20502;-72
2021/05/22 06:09:22;;;;;;;4.55;1.10;;;12.00;96.30;;;;;;5091686;28;20101;-73
2021/05/22 06:11:49;;;;;;;3.67;1.13;;;11.90;96.60;;;;;;5086870;28;20086;-73
2021/05/22 06:14:19;;;;;;;9.60;1.08;;;12.00;96.80;;;;;;5078248;28;20642;-73
2021/05/22 06:16:46;;;;;;;5.88;1.42;;;11.90;96.40;;;;;;5075349;28;20094;-73
2021/05/22 06:19:13;;;;;;;7.20;1.00;;;12.00;96.60;;;;;;5083729;28;20083;-73
2021/05/22 06:21:40;;;;;;;11.25;1.48;;;12.10;96.30;;;;;;5088447;28;20052;-73
2021/05/22 06:24:07;;;;;;;7.32;1.20;;;12.00;96.80;;;;;;5089972;28;20044;-72
2021/05/22 06:26:34;;;;;;;7.55;1.20;;;12.30;96.80;;;;;;5085559;28;20112;-73
2021/05/22 06:29:01;;;;;;;7.03;1.63;;;12.40;95.40;;;;;;5076770;28;20036;-73
2021/05/22 06:31:28;;;;;;;5.18;1.00;;;12.50;95.60;;;;;;5083001;28;20490;-73
2021/05/22 06:33:55;;;;;;;8.57;1.73;;;12.60;95.20;;;;;;5083190;28;20086;-72
2021/05/22 06:36:22;;;;;;;4.47;1.17;;;13.00;94.40;;;;;;5091005;28;20048;-73
2021/05/22 06:38:48;;;;;;;6.68;1.83;;;12.70;93.10;;;;;;5078434;28;20052;-73
2021/05/22 06:41:15;;;;;;;7.22;1.45;;;12.70;94.00;;;;;;5084332;28;20143;-73
2021/05/22 06:43:42;;;;;;;7.32;1.30;;;13.10;93.10;;;;;;5090908;28;20120;-73
2021/05/22 06:48:38;;;;;;;6.88;1.35;;;13.00;92.20;;;;;;5086387;28;20052;-72
2021/05/22 06:51:05;;;;;;;5.70;1.30;;;12.60;92.30;;;;;;5075545;28;20135;-71
2021/05/22 06:53:32;;;;;;;8.45;1.92;;;12.60;91.60;;;;;;5086709;28;20044;-73
2021/05/22 06:56:00;;;;;;;10.20;1.30;;;12.50;91.80;;;;;;5088337;28;20075;-71
2021/05/22 06:58:27;;;;;;;6.93;1.17;;;12.60;91.60;;;;;;5077079;28;20455;-72
2021/05/22 07:00:55;;;;;;;5.38;1.33;;;12.60;90.20;;;;;;5083645;28;20131;-73
2021/05/22 07:03:21;;;;;;;11.50;1.85;;;12.80;89.80;;;;;;5083232;28;20113;-73
2021/05/22 07:05:49;;;;;;;7.25;1.50;;;12.80;88.30;;;;;;5076400;28;20141;-73
2021/05/22 07:08:18;;;;;;;7.35;1.27;;;12.90;87.30;;;;;;5098808;28;20431;-73
2021/05/22 07:10:47;;;;;;;8.60;1.40;;;12.90;83.50;;;;;;5084241;28;20142;-72
2021/05/22 07:13:13;;;;;;;11.30;1.27;;;13.00;83.60;;;;;;5075403;28;20072;-73
2021/05/22 07:15:40;;;;;;;5.03;1.20;;;13.50;82.40;;;;;;5086868;28;20044;-73
2021/05/22 07:18:07;;;;;;;13.27;1.73;;;13.50;81.50;;;;;;5083706;28;20373;-72
2021/05/22 07:20:34;;;;;;;8.57;1.40;;;13.60;79.70;;;;;;5075717;28;20044;-72
2021/05/22 07:23:01;;;;;;;12.32;1.63;;;13.60;78.60;;;;;;5080213;28;20096;-72
2021/05/22 07:25:29;;;;;;;5.32;1.50;;;13.40;78.10;;;;;;5078119;28;20048;-71
2021/05/22 07:27:56;;;;;;;5.35;1.35;;;13.40;78.90;;;;;;5089809;28;20114;-71
2021/05/22 07:30:24;;;;;;;7.40;1.08;;;13.30;78.70;;;;;;5081805;28;20051;-70
2021/05/22 07:32:51;;;;;;;3.42;0.60;;;13.80;77.80;;;;;;5072474;28;20099;-71
2021/05/22 07:35:18;;;;;;;8.52;1.20;;;13.80;74.30;;;;;;5083746;28;20040;-71
2021/05/22 07:37:45;;;;;;;7.30;1.35;;;13.70;71.40;;;;;;5086000;28;20047;-72
2021/05/22 07:40:13;;;;;;;6.40;1.20;;;14.10;71.40;;;;;;5084516;28;20102;-71
2021/05/22 07:42:40;;;;;;;10.52;1.30;;;14.10;70.80;;;;;;5088187;28;20128;-72
2021/05/22 07:45:09;;;;;;;3.95;1.02;;;14.00;70.00;;;;;;5086523;28;20160;-72
2021/05/22 07:47:36;;;;;;;7.63;1.30;;;13.90;69.70;;;;;;5075395;28;20115;-73
2021/05/22 07:50:04;;;;;;;6.38;1.33;;;13.90;70.20;;;;;;5083410;28;20055;-72
2021/05/22 07:52:30;;;;;;;4.03;1.02;;;13.70;69.30;;;;;;5083534;28;20345;-72
2021/05/22 07:54:58;;;;;;;5.63;1.38;;;13.70;69.10;;;;;;5088798;28;20123;-72
2021/05/22 07:57:27;;;;;;;6.75;1.00;;;13.60;68.60;;;;;;5088450;28;20048;-71
2021/05/22 07:59:54;;;;;;;6.68;1.33;;;13.70;68.30;;;;;;5083149;28;20053;-72
2021/05/22 08:02:21;;;;;;;3.55;1.00;;;13.80;68.80;;;;;;5084246;28;20094;-72
2021/05/22 08:04:48;;;;;;;7.78;1.10;;;13.80;69.10;;;;;;5079159;28;20083;-72
2021/05/22 08:07:15;;;;;;;2.15;0.70;;;13.90;68.00;;;;;;5079777;28;20079;-72
2021/05/22 08:09:41;;;;;;;7.70;1.15;;;13.90;66.60;;;;;;5084058;28;20041;-71
2021/05/22 08:12:09;;;;;;;6.30;1.08;;;14.20;66.20;;;;;;5082527;28;20162;-73
2021/05/22 08:14:35;;;;;;;4.05;1.05;;;14.40;65.30;;;;;;5085479;28;20076;-71
2021/05/22 08:17:02;;;;;;;8.57;1.45;;;14.60;64.60;;;;;;5089170;28;20101;-71
2021/05/22 08:19:29;;;;;;;5.30;1.08;;;14.80;63.90;;;;;;5079493;28;20048;-72
2021/05/22 08:21:56;;;;;;;4.95;1.05;;;14.90;63.20;;;;;;5077880;28;20044;-72
2021/05/22 08:24:23;;;;;;;5.53;0.70;;;14.90;62.60;;;;;;5078819;28;20524;-71
2021/05/22 08:26:51;;;;;;;7.75;1.48;;;14.90;62.20;;;;;;5079518;28;20071;-72
2021/05/22 08:29:38;;;;;;;3.85;1.08;;;15.00;62.10;;;;;;5078635;28;20060;-72
2021/05/22 08:32:06;;;;;;;2.50;0.82;;;15.00;61.10;;;;;;5082817;28;20091;-72
2021/05/22 08:34:33;;;;;;;6.38;0.93;;;14.90;61.20;;;;;;5084123;28;20479;-71
2021/05/22 08:37:00;;;;;;;4.00;1.20;;;14.60;59.90;;;;;;5081528;28;20080;-72
2021/05/22 08:39:27;;;;;;;5.45;1.08;;;14.60;59.00;;;;;;5082968;28;20079;-72
2021/05/22 08:41:54;;;;;;;5.68;1.23;;;14.40;58.90;;;;;;5075156;28;20049;-72
2021/05/22 08:44:21;;;;;;;5.95;0.98;;;14.40;59.50;;;;;;5080452;28;20075;-72
2021/05/22 08:46:48;;;;;;;3.08;0.88;;;14.50;59.40;;;;;;5075136;28;20052;-73
2021/05/22 08:49:16;;;;;;;5.18;0.90;;;14.60;59.20;;;;;;5081280;28;20040;-72
2021/05/22 08:51:43;;;;;;;4.13;0.93;;;14.60;59.40;;;;;;5085274;28;20163;-72
2021/05/22 08:54:11;;;;;;;7.03;1.42;;;14.50;60.00;;;;;;5082459;28;20044;-72
2021/05/22 08:56:38;;;;;;;7.43;0.75;;;14.50;60.90;;;;;;5084546;28;20048;-72
2021/05/22 08:59:06;;;;;;;6.00;0.82;;;14.40;59.50;;;;;;5073386;28;20105;-72
2021/05/22 09:01:35;;;;;;;4.93;0.98;;;14.50;60.00;;;;;;5088072;28;20126;-72
2021/05/22 09:04:02;;;;;;;12.68;1.40;;;14.50;59.80;;;;;;5088101;28;20063;-71
2021/05/22 09:06:29;;;;;;;5.50;0.82;;;14.70;59.30;;;;;;5090816;28;20044;-74
2021/05/22 09:09:02;;;;;;;6.78;1.15;;;14.70;58.20;;;;;;5090467;28;20095;-74
2021/05/22 09:11:44;;;;;;;6.10;1.10;;;14.80;57.80;;;;;;5086516;28;20059;-73
2021/05/22 09:14:51;;;;;;;5.60;1.25;;;14.80;58.20;;;;;;5077529;28;20079;-73
2021/05/22 09:17:19;;;;;;;3.50;0.88;;;14.90;57.50;;;;;;5088801;28;20564;-74
2021/05/22 09:19:46;;;;;;;4.88;1.05;;;15.20;57.00;;;;;;5083901;28;20506;-74
2021/05/22 09:22:21;;;;;;;2.50;0.93;;;15.10;56.50;;;;;;5080639;28;20105;-74
2021/05/22 09:24:58;;;;;;;7.05;1.13;;;15.00;56.70;;;;;;5088639;28;20068;-74
2021/05/22 09:27:30;;;;;;;2.55;0.98;;;14.90;57.00;;;;;;5083336;28;20458;-74
2021/05/22 09:30:05;;;;;;;3.15;1.00;;;15.00;58.00;;;;;;5079649;28;20044;-73
2021/05/22 09:32:32;;;;;;;3.90;1.08;;;14.90;56.00;;;;;;5090403;28;20044;-74
2021/05/22 09:34:59;;;;;;;1.55;0.77;;;15.00;56.10;;;;;;5082175;28;20080;-74
2021/05/22 09:37:26;;;;;;;4.00;0.90;;;15.00;55.60;;;;;;5084864;28;20343;-74
2021/05/22 09:39:53;;;;;;;2.42;0.98;;;15.20;57.20;;;;;;5085701;28;20440;-74
2021/05/22 09:42:25;;;;;;;9.93;0.85;;;15.30;56.80;;;;;;5080871;28;20043;-73
2021/05/22 09:44:52;;;;;;;4.57;0.90;;;15.50;54.10;;;;;;5080737;28;20124;-74
2021/05/22 09:47:20;;;;;;;6.90;1.00;;;15.40;54.00;;;;;;5080648;28;20450;-74
2021/05/22 09:49:50;;;;;;;7.40;1.15;;;15.40;53.50;;;;;;5086839;28;20051;-74
2021/05/22 09:52:17;;;;;;;4.18;0.82;;;15.60;53.50;;;;;;5077206;28;20078;-73
2021/05/22 09:54:51;;;;;;;3.63;0.73;;;15.70;51.80;;;;;;5088768;28;20429;-74
2021/05/22 09:57:42;;;;;;;2.55;0.88;;;15.90;51.40;;;;;;5097717;27;20059;-74
2021/05/22 10:00:11;;;;;;;1.95;0.70;;;16.30;51.60;;;;;;5084908;28;20052;-74
2021/05/22 10:02:52;;;;;;;4.70;0.80;;;16.10;50.20;;;;;;5088705;28;20113;-74
2021/05/22 10:05:20;;;;;;;;;;;15.70;49.80;;;;;;5083660;28;20083;-74
2021/05/22 10:07:49;;;;;;;2.03;0.80;;;15.60;49.40;;;;;;5091938;28;19924;-74
2021/05/22 10:10:17;;;;;;;4.07;0.80;;;15.60;50.70;;;;;;5080159;28;20044;-74
2021/05/22 10:12:45;;;;;;;4.38;0.90;;;15.70;50.20;;;;;;5082795;28;20102;-73
2021/05/22 10:15:17;;;;;;;2.92;0.90;;;15.60;50.80;;;;;;5076817;28;20150;-73
2021/05/22 10:17:44;;;;;;;4.25;0.90;;;15.60;51.00;;;;;;5084368;28;20501;-72
2021/05/22 10:20:13;;;;;;;4.63;0.70;;;15.80;50.90;;;;;;5087320;28;20080;-72
2021/05/22 10:22:41;;;;;;;6.47;1.60;;;15.70;52.20;;;;;;5081641;28;20457;-75
2021/05/22 10:25:09;;;;;;;3.17;0.80;;;15.90;53.30;;;;;;5084410;28;20064;-75
2021/05/22 10:27:36;;;;;;;6.18;0.98;;;15.70;53.30;;;;;;5078980;28;20484;-80
2021/05/22 10:30:06;;;;;;;3.80;0.60;;;16.10;53.90;;;;;;5080238;28;20043;-75
2021/05/22 10:32:33;;;;;;;8.32;1.08;;;16.00;52.80;;;;;;5087054;28;20725;-74
2021/05/22 10:35:08;;;;;;;6.18;1.23;;;16.20;52.20;;;;;;5078299;28;20136;-74
2021/05/22 10:37:35;;;;;;;4.03;0.95;;;16.10;49.80;;;;;;5080587;28;20064;-74
2021/05/22 10:40:04;;;;;;;3.80;0.80;;;16.10;49.90;;;;;;5098047;28;20049;-74
2021/05/22 10:42:31;;;;;;;4.60;0.75;;;16.30;51.10;;;;;;5084094;28;20068;-74
2021/05/22 10:45:18;;;;;;;4.30;0.90;;;16.40;51.10;;;;;;5085055;28;20101;-74
2021/05/22 10:47:45;;;;;;;4.18;0.70;;;16.30;50.20;;;;;;5080569;28;20110;-74
2021/05/22 10:50:12;;;;;;;3.00;0.80;;;16.80;49.80;;;;;;5081866;28;20113;-74
2021/05/22 10:52:39;;;;;;;3.78;0.65;;;16.90;49.50;;;;;;5080299;28;20094;-74
2021/05/22 10:55:11;;;;;;;2.90;0.82;;;16.50;49.10;;;;;;5086765;28;20052;-74
2021/05/22 10:57:47;;;;;;;2.33;0.77;;;16.50;48.50;;;;;;5078182;28;20079;-73
2021/05/22 11:00:14;;;;;;;2.88;0.80;;;16.60;48.80;;;;;;5073864;28;20161;-74
2021/05/22 11:03:08;;;;;;;4.70;0.88;;;16.40;48.00;;;;;;5076101;28;20495;-74
2021/05/22 11:05:37;;;;;;;2.55;0.80;;;17.00;49.00;;;;;;5100127;28;20092;-74
2021/05/22 11:08:04;;;;;;;2.45;0.80;;;17.20;47.90;;;;;;5084736;28;20120;-78
2021/05/22 11:10:45;;;;;;;6.43;0.80;;;17.00;47.70;;;;;;5087574;28;20041;-75
2021/05/22 11:13:32;;;;;;;6.47;1.05;;;17.00;47.60;;;;;;5085907;28;20055;-76
2021/05/22 11:16:02;;;;;;;1.48;0.57;;;16.30;48.50;;;;;;5077315;28;20155;-74
2021/05/22 11:18:32;;;;;;;4.60;0.80;;;16.10;48.60;;;;;;5078865;28;20552;-73
2021/05/22 11:21:20;;;;;;;2.95;0.63;;;17.00;48.90;;;;;;5080280;28;20108;-76
2021/05/22 11:23:59;;;;;;;5.13;0.70;;;17.20;48.30;;;;;;5077297;28;20040;-74
2021/05/22 11:26:56;;;;;;;4.57;0.80;;;17.00;48.70;;;;;;5090881;27;20044;-74
2021/05/22 11:29:54;;;;;;;6.28;0.82;;;16.80;47.70;;;;;;5084326;28;20036;-74
2021/05/22 11:33:06;;;;;;;2.95;0.63;;;17.20;49.60;;;;;;5080987;28;20051;-74
2021/05/22 11:35:36;;;;;;;1.33;0.57;;;17.10;46.70;;;;;;5057805;28;20480;-74
2021/05/22 11:38:32;;;;;;;4.35;1.08;;;17.20;47.90;;;;;;5084812;28;20040;-74
2021/05/22 11:41:08;;;;;;;1.65;0.63;;;17.40;45.90;;;;;;5082893;28;20063;-74
2021/05/22 11:43:41;;;;;;;5.45;0.90;;;17.50;46.00;;;;;;5080690;28;20040;-75
2021/05/22 11:46:14;;;;;;;4.00;0.82;;;17.80;46.10;;;;;;5085069;28;20116;-75
2021/05/22 11:48:53;;;;;;;4.32;0.93;;;18.00;45.40;;;;;;5079007;28;20051;-74
2021/05/22 11:51:29;;;;;;;1.30;0.70;;;18.50;44.90;;;;;;5077550;28;20044;-74
2021/05/22 11:54:06;;;;;;;5.53;1.02;;;17.80;44.50;;;;;;5083453;28;20044;-74
2021/05/22 11:56:35;;;;;;;3.65;0.90;;;18.00;44.20;;;;;;5079148;28;20044;-74
2021/05/22 11:59:05;;;;;;;2.65;0.98;;;18.40;42.80;;;;;;5075681;28;20052;-74
2021/05/22 12:01:42;;;;;;;3.22;0.80;;;17.90;43.60;;;;;;5079675;28;20133;-75
2021/05/22 12:04:11;;;;;;;2.45;0.95;;;17.60;44.00;;;;;;5073645;28;20044;-74
2021/05/22 12:06:47;;;;;;;2.60;1.00;;;17.40;43.00;;;;;;5076645;28;20436;-74
2021/05/22 12:09:22;;;;;;;2.83;0.85;;;17.60;44.00;;;;;;5084180;28;20040;-75
2021/05/22 12:12:02;;;;;;;5.95;1.00;;;18.00;42.80;;;;;;5083769;28;20076;-74
2021/05/22 12:14:48;;;;;;;4.47;1.15;;;17.80;42.90;;;;;;5087206;28;20048;-74
2021/05/22 12:17:17;;;;;;;3.53;0.88;;;17.50;43.50;;;;;;5083053;28;20079;-77
2021/05/22 12:19:45;;;;;;;3.50;0.63;;;17.50;44.80;;;;;;5072868;28;20479;-75
2021/05/22 12:22:14;;;;;;;2.22;0.80;;;18.80;43.70;;;;;;5076292;28;20048;-73
2021/05/22 12:24:42;;;;;;;2.50;0.70;;;19.10;41.00;;;;;;5077417;28;20079;-73
2021/05/22 12:27:13;;;;;;;3.83;0.90;;;20.50;39.30;;;;;;5072015;28;20368;-72
2021/05/22 12:29:46;;;;;;;3.85;0.73;;;22.40;38.50;;;;;;5080415;28;20056;-73
2021/05/22 12:32:13;;;;;;;3.72;0.82;;;19.20;40.00;;;;;;5078630;28;20056;-73
2021/05/22 12:34:40;;;;;;;5.47;0.70;;;18.00;42.10;;;;;;5080128;28;20123;-73
2021/05/22 12:37:18;;;;;;;3.65;0.70;;;19.40;40.90;;;;;;5077828;28;20055;-72
2021/05/22 12:39:48;;;;;;;4.88;0.85;;;18.30;41.90;;;;;;5075988;28;20682;-73
2021/05/22 12:42:26;;;;;;;5.63;0.80;;;17.90;42.70;;;;;;5082583;28;20079;-73
2021/05/22 12:44:55;;;;;;;4.18;0.65;;;17.50;42.60;;;;;;5080153;28;20051;-75
2021/05/22 12:47:24;;;;;;;6.90;0.93;;;17.60;43.20;;;;;;5075596;28;20071;-75
2021/05/22 12:50:02;;;;;;;1.48;0.60;;;17.50;41.80;;;;;;5084921;28;20052;-73
2021/05/22 12:52:30;;;;;;;2.22;0.82;;;17.40;41.30;;;;;;5084329;28;20051;-72
2021/05/22 12:54:58;;;;;;;3.00;0.60;;;17.70;41.90;;;;;;5076454;28;20506;-73
2021/05/22 12:57:36;;;;;;;1.80;0.88;;;17.50;41.00;;;;;;5083234;28;20048;-73
2021/05/22 13:00:02;;;;;;;4.80;1.02;;;17.40;41.60;;;;;;5083968;28;20070;-73
2021/05/22 13:02:36;;;;;;;2.28;0.70;;;17.50;41.20;;;;;;5071670;28;20052;-73